Time;durP1;ratioP1;P1;durP2;ratioP2;P2;SDS_P1;SDS_P2;PMS_P1;PMS_P2;Temp;Humidity;BMP_temperature;BMP_pressure;BME280_temperature;BME280_humidity;BME280_pressure;Samples;Min_cycle;Max_cycle;Signal;HPM_P1;HPM_P2
2022/06/20 00:00:47;;;;;;;3.78;2.25;;;;;;;24.87;52.77;100561.59;4924945;29;20056;-77
2022/06/20 00:03:41;;;;;;;3.35;2.20;;;;;;;24.93;52.55;100563.53;4924050;29;20054;-77
2022/06/20 00:06:26;;;;;;;11.07;1.80;;;;;;;24.97;52.01;100569.03;4931594;29;20066;-78
2022/06/20 00:09:12;;;;;;;6.85;3.20;;;;;;;24.88;52.26;100566.78;4909677;29;20406;-79
2022/06/20 00:11:58;;;;;;;5.63;2.13;;;;;;;24.76;52.55;100560.91;4925443;29;20047;-77
2022/06/20 00:14:43;;;;;;;4.35;2.10;;;;;;;24.61;52.48;100561.09;4932412;29;20413;-79
2022/06/20 00:17:27;;;;;;;4.05;1.98;;;;;;;24.74;52.05;100564.09;4913540;29;20047;-79
2022/06/20 00:20:15;;;;;;;4.70;2.20;;;;;;;24.59;52.59;100569.03;4932337;29;20046;-79
2022/06/20 00:22:59;;;;;;;5.82;2.10;;;;;;;24.65;52.43;100561.03;4924477;29;20536;-78
2022/06/20 00:25:44;;;;;;;;;;;;;;;24.74;51.98;100571.69;4935034;29;20416;-79
2022/06/20 00:28:28;;;;;;;11.07;2.50;;;;;;;24.67;51.36;100562.22;4919408;29;19915;-78
2022/06/20 00:31:14;;;;;;;13.65;2.60;;;;;;;24.46;51.97;100554.09;4927585;29;20050;-78
2022/06/20 00:33:59;;;;;;;6.30;2.20;;;;;;;24.54;52.18;100544.47;4914935;29;20063;-78
2022/06/20 00:36:44;;;;;;;4.22;1.83;;;;;;;24.65;52.37;100545.16;4930088;29;20063;-78
2022/06/20 00:39:28;;;;;;;5.43;2.15;;;;;;;24.90;51.32;100544.88;4925571;29;20055;-79
2022/06/20 00:42:14;;;;;;;3.60;2.10;;;;;;;25.09;50.94;100541.44;4911929;29;20063;-79
2022/06/20 00:45:02;;;;;;;5.20;1.98;;;;;;;24.86;51.57;100535.75;4926228;29;20055;-79
2022/06/20 00:47:48;;;;;;;10.13;2.67;;;;;;;24.73;51.54;100534.75;4926524;29;20055;-79
2022/06/20 00:50:33;;;;;;;6.68;2.50;;;;;;;24.72;51.96;100533.16;4919300;29;20418;-79
2022/06/20 00:53:26;;;;;;;4.10;2.00;;;;;;;24.78;51.92;100530.69;4909957;29;20054;-78
2022/06/20 00:56:19;;;;;;;6.13;2.40;;;;;;;24.95;51.36;100532.47;4918989;29;20589;-79
2022/06/20 00:59:09;;;;;;;10.38;2.60;;;;;;;24.95;51.59;100526.91;4930411;29;20561;-78
2022/06/20 01:01:55;;;;;;;7.75;2.90;;;;;;;24.95;51.34;100526.91;4916399;29;20418;-83
2022/06/20 01:04:49;;;;;;;6.25;2.30;;;;;;;25.16;50.89;100526.63;4919363;29;20051;-79
2022/06/20 01:07:42;;;;;;;3.08;1.90;;;;;;;25.36;50.34;100524.75;4938154;29;20062;-80
2022/06/20 01:10:32;;;;;;;48.60;13.00;;;;;;;25.37;50.28;100522.75;4929016;29;20047;-81
2022/06/20 01:13:19;;;;;;;71.00;13.23;;;;;;;25.37;49.74;100522.75;4918253;29;20048;-81
2022/06/20 01:16:13;;;;;;;94.45;20.77;;;;;;;25.59;49.22;100526.03;4937266;29;20428;-79
2022/06/20 01:19:01;;;;;;;9.05;4.10;;;;;;;25.47;49.40;100519.81;4933515;29;20040;-78
2022/06/20 01:21:46;;;;;;;12.52;3.00;;;;;;;25.50;49.83;100515.38;4921176;29;20059;-78
2022/06/20 01:24:43;;;;;;;4.78;3.33;;;;;;;25.80;49.30;100520.13;4918899;29;20067;-80
2022/06/20 01:27:37;;;;;;;5.28;1.88;;;;;;;26.09;48.49;100524.00;4916252;29;20052;-79
2022/06/20 01:30:24;;;;;;;;;;;;;;;26.03;48.31;100514.53;4918457;29;20050;-80
2022/06/20 01:33:11;;;;;;;4.10;2.10;;;;;;;25.93;48.60;100509.94;4916118;29;19915;-80
2022/06/20 01:39:01;;;;;;;3.40;1.70;;;;;;;26.14;48.35;100503.19;4923788;29;20592;-80
2022/06/20 01:44:57;;;;;;;5.55;2.13;;;;;;;26.50;47.41;100511.69;4926809;29;20051;-80
2022/06/20 01:47:42;;;;;;;4.72;1.80;;;;;;;26.53;47.34;100508.03;4923425;29;20070;-80
2022/06/20 01:50:28;;;;;;;5.85;2.40;;;;;;;26.54;47.20;100496.47;4926403;29;20067;-81
2022/06/20 01:53:18;;;;;;;8.07;2.90;;;;;;;26.12;47.93;100495.25;4915163;29;20047;-81
2022/06/20 01:56:04;;;;;;;7.38;1.83;;;;;;;26.06;48.50;100504.56;4936500;29;20055;-80
2022/06/20 01:58:55;;;;;;;4.55;2.03;;;;;;;26.26;47.94;100506.16;4924148;29;20051;-81
2022/06/20 02:01:40;;;;;;;4.85;2.60;;;;;;;26.42;47.44;100504.66;4932576;29;20413;-81
2022/06/20 02:04:30;;;;;;;4.90;2.28;;;;;;;26.52;47.24;100501.66;4923541;29;20059;-80
2022/06/20 02:07:15;;;;;;;10.52;2.35;;;;;;;26.57;47.06;100492.00;4930371;29;20314;-80
2022/06/20 02:10:03;;;;;;;11.00;2.17;;;;;;;26.60;46.82;100496.75;4918639;29;20055;-79
2022/06/20 02:12:49;;;;;;;9.73;2.20;;;;;;;26.62;46.54;100500.66;4949954;23;20287;-82
2022/06/20 02:15:34;;;;;;;3.97;2.10;;;;;;;26.61;46.68;100501.13;4932492;29;20051;-83
2022/06/20 02:18:20;;;;;;;11.88;2.08;;;;;;;26.64;46.83;100497.47;4940578;29;20049;-82
2022/06/20 02:21:10;;;;;;;7.07;2.72;;;;;;;26.68;46.67;100498.16;4938708;29;20055;-81
2022/06/20 02:24:03;;;;;;;5.43;1.77;;;;;;;26.68;46.42;100492.59;4945963;29;20047;-82
2022/06/20 02:26:53;;;;;;;2.60;2.03;;;;;;;26.71;46.28;100494.53;4959376;29;20054;-83
2022/06/20 02:29:38;;;;;;;7.13;2.65;;;;;;;26.71;46.36;100489.75;4947693;28;20054;-83
2022/06/20 02:32:27;;;;;;;4.43;2.90;;;;;;;26.61;46.89;100484.38;4944917;28;20051;-83
2022/06/20 02:35:15;;;;;;;5.35;2.80;;;;;;;26.43;46.83;100481.94;4933426;29;20437;-82
2022/06/20 02:38:00;;;;;;;5.10;2.47;;;;;;;26.45;47.23;100479.53;4943443;28;20050;-83
2022/06/20 02:40:45;;;;;;;6.40;2.67;;;;;;;26.56;46.73;100484.88;4939686;29;20539;-82
2022/06/20 02:43:33;;;;;;;6.40;3.50;;;;;;;26.38;47.02;100479.66;4939965;29;20055;-82
2022/06/20 02:46:21;;;;;;;8.88;3.15;;;;;;;26.12;47.51;100483.31;4935019;29;20051;-82
2022/06/20 02:49:09;;;;;;;3.90;2.90;;;;;;;25.87;49.14;100475.41;4933133;29;20413;-81
2022/06/20 02:51:57;;;;;;;5.30;2.67;;;;;;;25.33;50.79;100472.72;4940229;28;20409;-82
2022/06/20 02:54:43;;;;;;;4.00;2.70;;;;;;;25.41;50.10;100468.59;4950152;28;20058;-83
2022/06/20 02:57:41;;;;;;;2.33;1.70;;;;;;;25.54;49.87;100482.72;4951973;28;20043;-83
2022/06/20 03:00:41;;;;;;;3.78;2.83;;;;;;;25.55;49.39;100484.31;4958650;28;20050;-82
2022/06/20 03:03:32;;;;;;;7.00;2.92;;;;;;;25.55;49.12;100476.75;4959410;28;20058;-82
2022/06/20 03:06:31;;;;;;;8.40;2.90;;;;;;;25.29;50.01;100482.31;4958734;28;20116;-82
2022/06/20 03:09:21;;;;;;;13.55;2.75;;;;;;;24.99;50.80;100469.25;4932326;29;20421;-82
2022/06/20 03:12:07;;;;;;;4.65;2.80;;;;;;;24.79;52.04;100465.53;4929631;29;20058;-82
2022/06/20 03:14:56;;;;;;;8.18;2.92;;;;;;;24.94;51.15;100466.94;4939512;29;20054;-83
2022/06/20 03:17:42;;;;;;;8.52;3.20;;;;;;;25.09;50.91;100471.09;4938762;29;20508;-82
2022/06/20 03:20:27;;;;;;;6.63;2.97;;;;;;;24.98;51.09;100476.03;4943832;28;20051;-82
2022/06/20 03:23:18;;;;;;;4.72;3.00;;;;;;;25.01;51.27;100473.19;4933164;29;20054;-83
2022/06/20 03:26:09;;;;;;;5.53;2.85;;;;;;;25.21;50.77;100472.50;4943435;29;20051;-82
2022/06/20 03:28:54;;;;;;;4.18;1.75;;;;;;;25.52;49.89;100474.00;4938286;29;20054;-82
2022/06/20 03:31:40;;;;;;;5.60;2.42;;;;;;;25.80;48.93;100476.31;4938485;29;20047;-82
2022/06/20 03:34:25;;;;;;;4.55;2.25;;;;;;;25.97;48.68;100482.78;4949602;28;20055;-82
2022/06/20 03:37:10;;;;;;;4.20;2.45;;;;;;;26.07;48.37;100476.22;4947989;28;20046;-83
2022/06/20 03:39:55;;;;;;;7.78;2.10;;;;;;;26.09;47.91;100476.59;4929062;28;20051;-82
2022/06/20 03:42:40;;;;;;;4.00;2.05;;;;;;;26.18;47.69;100487.19;4949373;28;20531;-83
2022/06/20 03:45:30;;;;;;;8.57;2.58;;;;;;;26.24;47.64;100480.72;4951156;29;20066;-81
2022/06/20 03:48:20;;;;;;;7.72;3.30;;;;;;;26.16;47.31;100484.81;4935360;29;20408;-81
2022/06/20 03:51:14;;;;;;;6.75;2.40;;;;;;;26.10;47.88;100489.34;4926595;29;20059;-82
2022/06/20 03:54:12;;;;;;;5.78;2.42;;;;;;;26.08;47.67;100488.97;4935415;29;20047;-82
2022/06/20 03:57:08;;;;;;;13.23;4.15;;;;;;;26.14;47.55;100490.03;4937328;29;20047;-82
2022/06/20 04:00:08;;;;;;;12.45;2.78;;;;;;;26.21;47.38;100483.56;4939181;28;20050;-82
2022/06/20 04:03:03;;;;;;;4.80;2.42;;;;;;;26.03;47.57;100478.31;4939239;29;20071;-81
2022/06/20 04:06:14;;;;;;;12.50;2.78;;;;;;;25.96;48.00;100470.06;4942040;29;20547;-82
2022/06/20 04:12:54;;;;;;;11.30;3.35;;;;;;;25.73;48.08;100478.44;4937963;29;20052;-81
2022/06/20 04:15:51;;;;;;;16.27;3.40;;;;;;;25.53;48.38;100483.94;4941565;29;20067;-83
2022/06/20 04:18:40;;;;;;;7.32;3.42;;;;;;;25.48;48.79;100481.63;4955267;28;20050;-82
2022/06/20 04:21:34;;;;;;;10.65;3.53;;;;;;;25.44;48.88;100492.03;4934869;28;20051;-82
2022/06/20 04:24:43;;;;;;;22.00;4.22;;;;;;;25.40;49.06;100489.28;4941867;29;20055;-82
2022/06/20 04:27:48;;;;;;;15.73;3.67;;;;;;;25.40;49.53;100494.84;4941673;29;20050;-81
2022/06/20 04:30:40;;;;;;;7.97;3.15;;;;;;;25.16;50.77;100498.81;4942231;29;20050;-81
2022/06/20 04:33:35;;;;;;;14.57;4.28;;;;;;;25.19;50.73;100495.19;4939891;29;20400;-81
2022/06/20 04:36:38;;;;;;;6.30;3.35;;;;;;;25.07;50.40;100498.53;4939928;29;20050;-81
2022/06/20 04:39:29;;;;;;;9.95;3.70;;;;;;;25.19;50.66;100483.28;4952300;28;20062;-82
2022/06/20 04:42:26;;;;;;;11.85;3.35;;;;;;;25.40;51.35;100489.28;4936173;29;20050;-82
2022/06/20 04:45:20;;;;;;;8.73;4.35;;;;;;;25.27;49.70;100499.44;4941274;29;20129;-82
2022/06/20 04:48:16;;;;;;;10.50;4.55;;;;;;;25.30;49.74;100495.00;4941572;29;20540;-82
2022/06/20 04:51:06;;;;;;;15.15;5.03;;;;;;;25.24;49.90;100496.72;4937282;29;20070;-82
2022/06/20 04:53:51;;;;;;;13.88;4.75;;;;;;;25.23;50.07;100492.34;4939799;29;20531;-82
2022/06/20 04:56:36;;;;;;;7.55;4.07;;;;;;;25.28;49.78;100489.09;4938654;29;20051;-83
2022/06/20 04:59:28;;;;;;;7.47;3.90;;;;;;;25.24;51.99;100493.94;4949724;29;20051;-83
2022/06/20 05:02:20;;;;;;;11.43;4.93;;;;;;;25.21;50.48;100491.97;4948462;28;20055;-83
2022/06/20 05:05:12;;;;;;;11.25;4.32;;;;;;;25.24;51.76;100497.50;4942754;29;20058;-82
2022/06/20 05:08:01;;;;;;;6.57;4.15;;;;;;;25.24;51.23;100496.72;4948613;28;20050;-83
2022/06/20 05:10:52;;;;;;;5.82;3.75;;;;;;;25.24;51.60;100500.28;4949778;29;20046;-82
2022/06/20 05:13:44;;;;;;;8.05;3.88;;;;;;;25.38;50.62;100502.84;4940844;29;20051;-83
2022/06/20 05:16:34;;;;;;;9.93;3.85;;;;;;;25.39;50.94;100504.44;4945551;29;20054;-82
2022/06/20 05:19:26;;;;;;;7.85;3.50;;;;;;;25.40;51.72;100508.78;4946215;28;20051;-82
2022/06/20 05:22:17;;;;;;;10.48;3.40;;;;;;;25.62;51.12;100494.53;4935300;29;20050;-83
2022/06/20 05:25:06;;;;;;;7.57;3.58;;;;;;;25.74;50.73;100505.88;4950810;29;20046;-81
2022/06/20 05:28:04;;;;;;;14.25;4.75;;;;;;;25.85;50.83;100508.50;4949154;28;20047;-83
2022/06/20 05:30:49;;;;;;;7.25;4.20;;;;;;;25.84;51.05;100509.69;4941045;29;20528;-83
2022/06/20 05:33:45;;;;;;;7.88;5.85;;;;;;;26.00;50.43;100515.41;4940341;29;20047;-83
2022/06/20 05:36:49;;;;;;;15.57;4.00;;;;;;;26.12;50.15;100511.97;4941117;29;20076;-82
2022/06/20 05:39:44;;;;;;;12.15;4.75;;;;;;;26.25;50.12;100524.13;4939063;28;20050;-83
2022/06/20 05:42:28;;;;;;;91.72;10.00;;;;;;;26.31;49.77;100524.41;4935479;29;20125;-83
2022/06/20 05:45:16;;;;;;;24.65;6.13;;;;;;;26.23;49.80;100523.75;4940339;29;20052;-84
2022/06/20 05:48:10;;;;;;;17.20;8.05;;;;;;;26.18;50.72;100527.00;4954547;28;20062;-82
2022/06/20 05:51:01;;;;;;;35.83;8.18;;;;;;;26.29;50.01;100527.63;4959068;29;20050;-83
2022/06/20 05:53:48;;;;;;;24.08;8.10;;;;;;;26.29;49.89;100519.25;4960430;28;20047;-83
2022/06/20 05:56:42;;;;;;;23.70;8.13;;;;;;;26.32;50.04;100526.75;4960114;28;20078;-83
2022/06/20 05:59:34;;;;;;;16.15;8.68;;;;;;;26.24;50.01;100530.91;4954467;29;20050;-83
2022/06/20 06:02:27;;;;;;;18.70;8.68;;;;;;;26.17;49.80;100533.00;4940537;28;20050;-83
2022/06/20 06:05:23;;;;;;;15.75;8.68;;;;;;;26.18;49.51;100529.78;4943680;28;20050;-83
2022/06/20 06:08:14;;;;;;;12.60;8.32;;;;;;;26.20;49.17;100534.94;4940980;29;20058;-83
2022/06/20 06:11:10;;;;;;;11.27;7.55;;;;;;;26.11;48.92;100535.47;4950944;29;20046;-82
2022/06/20 06:14:04;;;;;;;12.82;5.97;;;;;;;26.17;49.17;100533.00;4961099;28;20059;-83
2022/06/20 06:17:11;;;;;;;23.63;5.20;;;;;;;26.46;48.90;100536.09;4964302;28;20046;-83
2022/06/20 06:20:04;;;;;;;23.70;8.48;;;;;;;26.52;48.38;100531.56;4950006;28;20051;-83
2022/06/20 06:22:56;;;;;;;55.20;8.32;;;;;;;26.61;48.02;100531.81;4940962;29;20060;-83
2022/06/20 06:25:43;;;;;;;53.95;7.45;;;;;;;26.74;47.99;100536.31;4937079;29;20121;-83
2022/06/20 06:28:32;;;;;;;27.92;7.53;;;;;;;26.71;47.19;100541.97;4936458;29;20043;-83
2022/06/20 06:31:22;;;;;;;22.48;6.88;;;;;;;26.61;48.07;100529.81;4938965;29;20074;-83
2022/06/20 06:34:19;;;;;;;19.48;5.13;;;;;;;26.80;47.70;100536.59;4935684;29;20047;-82
2022/06/20 06:37:12;;;;;;;17.48;6.72;;;;;;;26.89;47.30;100536.81;4932880;29;20058;-83
2022/06/20 06:40:09;;;;;;;29.98;5.38;;;;;;;26.77;47.63;100529.06;4938641;29;20043;-82
2022/06/20 06:42:56;;;;;;;8.13;4.47;;;;;;;26.83;46.44;100541.28;4935031;29;20054;-83
2022/06/20 06:45:42;;;;;;;14.20;4.60;;;;;;;27.05;46.41;100533.28;4937563;29;20046;-82
2022/06/20 06:48:35;;;;;;;12.68;4.28;;;;;;;27.03;46.03;100536.50;4934727;29;20051;-83
2022/06/20 06:51:32;;;;;;;18.67;5.20;;;;;;;26.97;45.78;100529.09;4939466;29;20042;-83
2022/06/20 06:54:26;;;;;;;12.93;4.47;;;;;;;27.19;45.51;100532.97;4938714;29;20060;-83
2022/06/20 06:57:36;;;;;;;11.15;4.68;;;;;;;27.30;45.51;100524.34;4939861;29;20062;-83
2022/06/20 07:00:29;;;;;;;15.90;4.65;;;;;;;27.37;45.46;100536.16;4938596;29;20528;-82
2022/06/20 07:03:28;;;;;;;18.90;6.00;;;;;;;27.53;44.92;100529.84;4936249;29;20058;-82
2022/06/20 07:06:40;;;;;;;19.70;6.90;;;;;;;27.53;44.72;100533.41;4947852;28;20058;-82
2022/06/20 07:09:47;;;;;;;12.57;5.10;;;;;;;27.41;45.61;100533.28;4940093;29;20050;-82
2022/06/20 07:12:43;;;;;;;20.55;5.35;;;;;;;27.55;45.33;100528.16;4938506;28;20038;-82
2022/06/20 07:15:29;;;;;;;14.32;4.47;;;;;;;27.54;45.47;100528.59;4934641;29;20050;-82
2022/06/20 07:18:32;;;;;;;13.32;4.70;;;;;;;27.63;45.24;100529.56;4931743;29;20059;-82
2022/06/20 07:21:21;;;;;;;13.90;4.53;;;;;;;27.59;45.29;100533.66;4937112;29;20058;-83
2022/06/20 07:24:11;;;;;;;13.85;5.18;;;;;;;27.60;45.21;100524.84;4935287;29;20043;-83
2022/06/20 07:27:02;;;;;;;13.35;4.88;;;;;;;27.71;44.48;100532.19;4931662;29;20124;-82
2022/06/20 07:29:54;;;;;;;10.85;4.75;;;;;;;27.62;45.26;100527.22;4933409;29;20051;-83
2022/06/20 07:32:45;;;;;;;10.02;4.47;;;;;;;27.68;45.03;100524.69;4933674;29;20059;-83
2022/06/20 07:35:35;;;;;;;17.25;5.80;;;;;;;27.80;44.28;100526.78;4930695;29;20055;-83
2022/06/20 07:38:34;;;;;;;10.57;4.47;;;;;;;27.87;44.20;100527.38;4929300;29;20046;-82
2022/06/20 07:41:37;;;;;;;13.60;3.90;;;;;;;27.84;44.57;100517.06;4931914;29;20132;-83
2022/06/20 07:44:33;;;;;;;10.50;4.75;;;;;;;27.93;43.75;100513.66;4930701;29;20050;-83
2022/06/20 07:47:24;;;;;;;12.55;4.03;;;;;;;28.01;43.60;100515.84;4936739;29;20073;-80
2022/06/20 07:50:12;;;;;;;20.67;3.45;;;;;;;28.09;43.73;100511.63;4942563;28;20054;-81
2022/06/20 07:53:07;;;;;;;14.10;3.60;;;;;;;28.09;43.91;100505.22;4938243;29;20049;-81
2022/06/20 07:55:57;;;;;;;21.00;4.03;;;;;;;28.15;43.71;100514.69;4937712;29;20047;-81
2022/06/20 07:58:48;;;;;;;11.77;3.58;;;;;;;28.26;43.03;100508.81;4937358;29;20063;-82
2022/06/20 08:01:37;;;;;;;7.53;4.47;;;;;;;28.31;41.82;100517.47;4938418;29;20121;-80
2022/06/20 08:04:33;;;;;;;10.27;3.95;;;;;;;28.46;41.41;100512.25;4935883;29;20532;-82
2022/06/20 08:07:24;;;;;;;13.48;2.53;;;;;;;28.50;42.18;100508.13;4947782;28;20174;-81
2022/06/20 08:10:31;;;;;;;17.35;3.47;;;;;;;28.49;42.25;100511.38;4948845;29;20046;-82
2022/06/20 08:13:29;;;;;;;9.52;3.97;;;;;;;28.44;41.97;100514.72;4956827;23;20051;-65
2022/06/20 08:16:20;;;;;;;11.30;4.35;;;;;;;28.57;42.27;100507.16;4939022;28;20050;-65
2022/06/20 08:19:04;;;;;;;12.32;2.70;;;;;;;28.59;42.21;100510.28;4944554;29;20058;-63
2022/06/20 08:21:57;;;;;;;13.82;2.30;;;;;;;28.59;42.33;100499.09;4952550;29;20050;-64
2022/06/20 08:24:49;;;;;;;11.43;4.25;;;;;;;28.56;41.22;100497.16;4952646;29;20054;-64
2022/06/20 08:27:41;;;;;;;13.65;2.10;;;;;;;28.69;41.26;100503.59;4946850;29;20308;-62
2022/06/20 08:30:29;;;;;;;3.33;2.00;;;;;;;28.76;41.64;100500.59;4944050;28;20051;-62
2022/06/20 08:33:24;;;;;;;6.60;2.30;;;;;;;28.80;41.56;100504.06;4926641;29;20411;-67
2022/06/20 08:36:26;;;;;;;7.32;2.15;;;;;;;28.70;41.77;100504.38;4930891;29;20051;-64
2022/06/20 08:39:34;;;;;;;7.32;2.50;;;;;;;28.72;41.55;100501.94;4932864;29;20059;-66
2022/06/20 08:42:28;;;;;;;5.93;2.30;;;;;;;28.74;41.69;100500.28;4933101;29;20055;-67
2022/06/20 08:45:36;;;;;;;5.03;3.33;;;;;;;28.79;40.29;100494.13;4933404;29;20055;-65
2022/06/20 08:48:36;;;;;;;12.48;3.65;;;;;;;28.92;40.09;100486.53;4935184;29;20055;-64
2022/06/20 08:52:06;;;;;;;6.90;2.40;;;;;;;29.09;39.92;100490.03;4932397;29;20399;-65
2022/06/20 08:55:13;;;;;;;14.38;2.40;;;;;;;29.00;40.28;100486.31;4933454;29;20051;-62
2022/06/20 08:58:22;;;;;;;8.77;3.28;;;;;;;29.10;40.39;100477.59;4933266;29;20050;-64
2022/06/20 09:01:39;;;;;;;7.20;2.25;;;;;;;29.14;39.43;100483.06;4936650;29;20396;-64
2022/06/20 09:04:42;;;;;;;10.30;3.25;;;;;;;29.09;39.28;100480.84;4937783;29;20043;-64
2022/06/20 09:08:12;;;;;;;7.57;2.15;;;;;;;29.07;40.39;100483.28;4936222;29;20055;-63
2022/06/20 09:11:15;;;;;;;7.05;2.13;;;;;;;29.00;40.29;100484.31;4938607;29;20070;-63
2022/06/20 09:14:37;;;;;;;4.70;2.05;;;;;;;29.00;40.45;100478.72;4945235;29;20047;-62
2022/06/20 09:17:53;;;;;;;152.50;7.82;;;;;;;29.17;38.60;100479.38;4934764;29;20054;-66
2022/06/20 09:20:52;;;;;;;12.00;2.25;;;;;;;29.33;38.71;100463.25;4931924;29;20044;-64
2022/06/20 09:23:49;;;;;;;9.95;2.47;;;;;;;29.56;38.38;100469.75;4936180;29;20415;-64
2022/06/20 09:26:53;;;;;;;5.50;1.95;;;;;;;29.50;38.57;100466.72;4936598;29;20046;-65
2022/06/20 09:29:56;;;;;;;17.45;2.95;;;;;;;29.59;36.60;100455.59;4937346;29;20054;-63
2022/06/20 09:33:11;;;;;;;7.40;2.00;;;;;;;29.69;37.58;100457.25;4937072;29;20046;-64
2022/06/20 09:36:09;;;;;;;6.20;2.08;;;;;;;29.43;38.53;100455.75;4936142;29;20059;-64
2022/06/20 09:39:13;;;;;;;8.57;2.20;;;;;;;29.83;36.58;100453.16;4935932;29;20062;-63
2022/06/20 09:42:07;;;;;;;6.28;2.60;;;;;;;29.86;37.23;100454.28;4945613;28;20067;-63
2022/06/20 09:45:20;;;;;;;9.32;2.15;;;;;;;29.97;36.60;100446.34;4939576;29;20047;-65
2022/06/20 09:48:16;;;;;;;5.75;2.28;;;;;;;30.04;37.28;100444.03;4934595;29;20055;-64
2022/06/20 09:51:39;;;;;;;6.45;2.55;;;;;;;30.19;36.36;100441.50;4935330;29;20063;-64
2022/06/20 09:54:49;;;;;;;5.18;2.47;;;;;;;30.36;36.41;100439.28;4940099;28;20063;-68
2022/06/20 09:58:00;;;;;;;6.78;2.20;;;;;;;30.43;37.09;100430.59;4930887;29;20058;-66
2022/06/20 10:01:12;;;;;;;7.97;3.25;;;;;;;30.46;37.28;100433.31;4931904;29;20046;-63
2022/06/20 10:04:13;;;;;;;6.63;2.60;;;;;;;30.52;36.59;100430.69;4933919;29;20403;-64
2022/06/20 10:07:01;;;;;;;8.25;2.85;;;;;;;30.58;36.48;100426.81;4935428;29;20427;-63
2022/06/20 10:10:03;;;;;;;10.85;2.33;;;;;;;30.79;36.45;100424.41;4936001;29;20051;-63
2022/06/20 10:12:59;;;;;;;9.77;2.03;;;;;;;30.96;36.21;100434.97;4938017;29;20051;-61
2022/06/20 10:15:53;;;;;;;10.25;2.47;;;;;;;31.10;35.47;100424.41;4942117;29;20070;-64
2022/06/20 10:18:53;;;;;;;11.98;2.88;;;;;;;31.14;36.54;100428.66;4934779;28;20098;-66
2022/06/20 10:22:23;;;;;;;6.55;2.35;;;;;;;31.19;35.99;100421.66;4931741;29;20051;-62
2022/06/20 10:25:21;;;;;;;6.22;2.28;;;;;;;31.25;35.01;100423.38;4938614;29;20054;-63
2022/06/20 10:28:30;;;;;;;11.27;2.40;;;;;;;31.31;34.98;100418.72;4927188;29;20046;-62
2022/06/20 10:31:21;;;;;;;13.55;2.50;;;;;;;31.50;34.70;100418.72;4915272;29;20051;-64
2022/06/20 10:34:25;;;;;;;5.55;2.25;;;;;;;31.54;35.22;100411.75;4926827;29;20066;-62
2022/06/20 10:37:19;;;;;;;11.55;2.55;;;;;;;31.61;34.98;100407.84;4926501;29;20050;-63
2022/06/20 10:40:29;;;;;;;6.15;2.33;;;;;;;31.78;35.37;100397.88;4929868;29;20058;-62
2022/06/20 10:43:27;;;;;;;19.20;2.58;;;;;;;31.67;35.19;100403.19;4927766;29;20055;-63
2022/06/20 10:46:28;;;;;;;11.85;3.08;;;;;;;31.75;36.19;100401.59;4934543;29;20047;-61
2022/06/20 10:49:42;;;;;;;8.88;2.45;;;;;;;31.70;36.25;100393.78;4934247;29;20075;-61
2022/06/20 10:52:41;;;;;;;8.73;2.65;;;;;;;31.78;35.94;100386.63;4938658;29;20051;-62
2022/06/20 10:55:37;;;;;;;12.65;2.60;;;;;;;31.67;35.46;100381.47;4934537;29;20419;-66
2022/06/20 10:58:28;;;;;;;5.85;3.15;;;;;;;31.90;35.80;100374.41;4938283;28;20518;-63
2022/06/20 11:01:21;;;;;;;10.93;2.70;;;;;;;31.98;34.94;100378.50;4937131;28;20055;-62
2022/06/20 11:04:45;;;;;;;5.88;2.08;;;;;;;32.05;35.74;100366.91;4934380;29;20055;-64
2022/06/20 11:08:04;;;;;;;7.57;2.45;;;;;;;32.11;35.37;100365.03;4933907;29;20054;-63
2022/06/20 11:11:19;;;;;;;13.10;2.90;;;;;;;32.18;37.07;100361.91;4934588;29;20042;-64
2022/06/20 11:14:25;;;;;;;21.38;2.90;;;;;;;32.18;36.10;100358.31;4934350;29;20051;-62
2022/06/20 11:17:17;;;;;;;5.97;2.00;;;;;;;32.35;34.98;100351.09;4933425;29;20530;-61
2022/06/20 11:20:28;;;;;;;20.42;2.85;;;;;;;32.40;35.61;100352.47;4937002;29;20058;-63
2022/06/20 11:23:13;;;;;;;5.15;2.17;;;;;;;32.50;34.66;100356.81;4931408;29;20055;-63
2022/06/20 11:26:08;;;;;;;13.02;2.60;;;;;;;32.59;32.63;100351.94;4937211;29;20054;-63
2022/06/20 11:29:14;;;;;;;5.03;2.17;;;;;;;32.64;32.81;100344.91;4934578;29;20058;-63
2022/06/20 11:32:04;;;;;;;15.15;3.25;;;;;;;32.72;32.42;100346.09;4933993;29;20534;-66
2022/06/20 11:35:17;;;;;;;120.10;7.57;;;;;;;32.68;31.16;100349.09;4934065;29;20058;-63
2022/06/20 11:38:17;;;;;;;31.20;3.67;;;;;;;32.80;30.30;100338.09;4930797;29;20056;-62
2022/06/20 11:41:14;;;;;;;10.63;2.35;;;;;;;32.79;31.35;100339.34;4934728;29;20046;-62
2022/06/20 11:44:40;;;;;;;9.13;2.15;;;;;;;32.87;31.20;100341.34;4933471;29;20058;-63
2022/06/20 11:47:31;;;;;;;10.88;2.08;;;;;;;32.94;30.14;100341.00;4933162;29;20763;-67
2022/06/20 11:50:40;;;;;;;44.30;3.25;;;;;;;32.91;28.88;100339.13;4929543;29;20054;-64
2022/06/20 11:53:49;;;;;;;135.05;8.32;;;;;;;32.99;28.65;100348.78;4931734;29;20514;-64
2022/06/20 11:56:46;;;;;;;23.90;2.90;;;;;;;33.03;29.98;100352.19;4942781;29;20038;-62
2022/06/20 11:59:43;;;;;;;3.67;1.73;;;;;;;33.12;29.14;100342.16;4935510;29;20054;-64
2022/06/20 12:02:39;;;;;;;9.25;2.10;;;;;;;33.19;28.17;100336.16;4933823;29;20054;-62
2022/06/20 12:05:47;;;;;;;15.77;2.17;;;;;;;33.33;29.73;100338.25;4937045;29;20058;-62
2022/06/20 12:08:50;;;;;;;13.45;2.65;;;;;;;33.24;27.83;100329.88;4933113;29;20046;-62
2022/06/20 12:11:53;;;;;;;9.98;2.42;;;;;;;33.30;28.88;100334.38;4936629;29;20067;-62
2022/06/20 12:15:15;;;;;;;14.60;2.85;;;;;;;33.36;27.83;100323.22;4930609;29;20522;-61
2022/06/20 12:18:13;;;;;;;23.92;2.70;;;;;;;33.36;27.29;100324.00;4935192;29;20047;-63
2022/06/20 12:24:08;;;;;;;19.77;3.03;;;;;;;33.44;27.74;100321.56;4936220;29;20522;-61
2022/06/20 12:26:54;;;;;;;12.45;2.30;;;;;;;33.62;28.36;100327.06;4933220;29;20518;-61
2022/06/20 12:29:39;;;;;;;8.30;2.33;;;;;;;33.57;28.18;100316.47;4932928;29;20388;-61
2022/06/20 12:32:28;;;;;;;8.70;1.98;;;;;;;33.65;27.55;100309.16;4933128;29;20635;-62
2022/06/20 12:35:21;;;;;;;11.20;2.97;;;;;;;33.47;27.08;100312.91;4930569;29;20415;-63
2022/06/20 12:38:47;;;;;;;10.90;2.60;;;;;;;33.51;27.07;100305.06;4933817;29;20436;-62
2022/06/20 12:41:39;;;;;;;8.15;2.38;;;;;;;33.52;27.40;100303.78;4933062;29;20055;-61
2022/06/20 12:44:50;;;;;;;10.07;2.13;;;;;;;33.49;27.71;100296.31;4936127;29;20051;-63
2022/06/20 12:47:53;;;;;;;25.15;2.55;;;;;;;33.65;27.88;100289.41;4935189;29;20404;-63
2022/06/20 12:50:50;;;;;;;5.63;2.13;;;;;;;33.73;27.55;100284.22;4942661;28;20051;-61
2022/06/20 12:54:05;;;;;;;4.88;1.67;;;;;;;33.89;27.89;100281.69;4939040;28;20039;-62
2022/06/20 12:57:05;;;;;;;4.65;2.00;;;;;;;33.74;28.19;100272.44;4934642;29;20051;-62
2022/06/20 13:00:20;;;;;;;8.05;2.00;;;;;;;33.63;29.31;100272.19;4935875;29;20051;-62
2022/06/20 13:03:11;;;;;;;12.60;2.05;;;;;;;33.45;28.69;100261.09;4936334;29;20054;-62
2022/06/20 13:06:11;;;;;;;8.90;1.58;;;;;;;33.48;27.75;100262.94;4936207;29;20046;-62
2022/06/20 13:09:20;;;;;;;5.65;2.15;;;;;;;33.52;29.20;100267.13;4936411;29;20047;-62
2022/06/20 13:12:14;;;;;;;11.50;2.42;;;;;;;33.63;29.10;100265.78;4939876;29;20046;-62
2022/06/20 13:15:28;;;;;;;7.22;2.63;;;;;;;33.43;29.18;100264.38;4936136;29;20079;-61
2022/06/20 13:18:32;;;;;;;9.63;1.90;;;;;;;33.50;29.26;100252.75;4939309;29;20050;-63
2022/06/20 13:21:38;;;;;;;5.33;1.93;;;;;;;33.40;29.89;100253.31;4931505;29;20408;-63
2022/06/20 13:24:47;;;;;;;122.32;9.85;;;;;;;33.36;30.12;100247.09;4935658;29;20054;-62
2022/06/20 13:28:00;;;;;;;6.10;1.77;;;;;;;33.26;30.31;100242.78;4934198;29;20035;-62
2022/06/20 13:31:03;;;;;;;11.02;2.10;;;;;;;33.33;29.06;100239.56;4937791;29;20038;-62
2022/06/20 13:34:13;;;;;;;4.65;1.80;;;;;;;33.31;30.74;100242.13;4938118;29;20043;-62
2022/06/20 13:37:20;;;;;;;17.10;4.07;;;;;;;33.37;29.81;100234.56;4932937;29;20047;-61
2022/06/20 13:40:30;;;;;;;6.05;2.17;;;;;;;33.38;30.00;100222.78;4927494;29;20051;-61
2022/06/20 13:43:44;;;;;;;10.85;2.10;;;;;;;33.51;30.35;100231.75;4933671;28;20408;-62
2022/06/20 13:46:49;;;;;;;5.57;1.50;;;;;;;33.48;29.93;100217.81;4932290;29;20452;-62